createdAt,value
2022-09-01T00:01:41.573Z,14.20
2022-09-01T00:04:47.420Z,12.57
2022-09-01T00:07:50.540Z,12.80
2022-09-01T00:10:53.700Z,11.87
2022-09-01T00:13:58.571Z,12.30
2022-09-01T00:17:07.054Z,13.77
2022-09-01T00:20:10.993Z,13.70
2022-09-01T00:23:14.041Z,15.47
2022-09-01T00:26:17.236Z,19.47
2022-09-01T00:29:20.481Z,15.67
2022-09-01T00:32:25.476Z,15.10
2022-09-01T00:35:28.679Z,25.30
2022-09-01T00:38:31.773Z,21.57
2022-09-01T00:41:38.908Z,20.53
2022-09-01T00:44:42.011Z,18.60
2022-09-01T00:47:46.472Z,18.33
2022-09-01T00:50:49.644Z,14.87
2022-09-01T00:53:59.986Z,14.90
2022-09-01T00:57:05.369Z,18.07
2022-09-01T01:00:12.405Z,23.20
2022-09-01T01:03:17.235Z,22.20
2022-09-01T01:06:26.902Z,18.37
2022-09-01T01:09:37.123Z,16.17
2022-09-01T01:12:43.419Z,17.43
2022-09-01T01:15:46.554Z,16.10
2022-09-01T01:18:51.159Z,30.87
2022-09-01T01:22:13.143Z,41.10
2022-09-01T01:25:19.127Z,45.50
2022-09-01T01:28:24.663Z,41.20
2022-09-01T01:31:27.755Z,21.57
2022-09-01T01:34:30.917Z,17.50
2022-09-01T01:37:36.447Z,17.60
2022-09-01T01:40:41.589Z,16.83
2022-09-01T01:43:44.801Z,16.50
2022-09-01T01:46:51.435Z,14.63
2022-09-01T01:49:54.502Z,14.87
2022-09-01T01:53:02.964Z,15.07
2022-09-01T01:56:18.426Z,14.80
2022-09-01T01:59:24.829Z,13.67
2022-09-01T02:02:28.047Z,14.30
2022-09-01T02:05:33.982Z,14.40
2022-09-01T02:08:38.703Z,14.93
2022-09-01T02:11:44.761Z,14.27
2022-09-01T02:14:48.578Z,13.40
2022-09-01T02:17:51.652Z,13.63
2022-09-01T02:20:55.790Z,13.17
2022-09-01T02:24:02.314Z,13.13
2022-09-01T02:27:07.013Z,13.60
2022-09-01T02:30:12.839Z,12.47
2022-09-01T02:33:19.321Z,12.20
2022-09-01T02:36:22.974Z,11.63
2022-09-01T02:39:29.339Z,13.17
2022-09-01T02:42:33.939Z,12.17
2022-09-01T02:45:37.378Z,12.60
2022-09-01T02:48:46.309Z,11.30
2022-09-01T02:51:54.185Z,12.60
2022-09-01T02:54:58.663Z,12.90
2022-09-01T02:58:03.156Z,13.43
2022-09-01T03:01:07.324Z,13.20
2022-09-01T03:04:13.355Z,14.50
2022-09-01T03:07:18.444Z,12.40
2022-09-01T03:10:22.064Z,13.17
2022-09-01T03:13:29.475Z,12.40
2022-09-01T03:16:33.351Z,14.07
2022-09-01T03:19:40.303Z,12.50
2022-09-01T03:22:44.466Z,13.20
2022-09-01T03:25:48.933Z,13.00
2022-09-01T03:28:53.891Z,12.30
2022-09-01T03:31:57.029Z,13.13
2022-09-01T03:35:00.344Z,13.47
2022-09-01T03:38:04.845Z,14.50
2022-09-01T03:41:09.400Z,12.80
2022-09-01T03:44:16.323Z,12.63
2022-09-01T03:47:21.237Z,13.97
2022-09-01T03:50:28.583Z,13.07
2022-09-01T03:53:37.761Z,13.17
2022-09-01T03:56:43.136Z,12.03
2022-09-01T03:59:47.707Z,12.03
2022-09-01T04:02:56.360Z,13.43
2022-09-01T04:06:00.711Z,11.73
2022-09-01T04:09:03.899Z,13.20
2022-09-01T04:12:09.107Z,13.30
2022-09-01T04:15:17.107Z,14.00
2022-09-01T04:18:20.680Z,14.03
2022-09-01T04:21:23.961Z,13.87
2022-09-01T04:24:29.551Z,14.37
2022-09-01T04:27:33.950Z,14.50
2022-09-01T04:30:40.831Z,13.20
2022-09-01T04:33:49.705Z,14.93
2022-09-01T04:36:56.999Z,16.43
2022-09-01T04:40:00.072Z,19.07
2022-09-01T04:43:03.197Z,18.93
2022-09-01T04:46:07.822Z,18.67
2022-09-01T04:49:12.882Z,19.93
2022-09-01T04:52:16.511Z,19.63
2022-09-01T04:55:19.790Z,18.40
2022-09-01T04:58:26.331Z,18.53
2022-09-01T05:01:30.834Z,17.93
2022-09-01T05:04:35.000Z,16.77
2022-09-01T05:07:38.113Z,18.33
2022-09-01T05:10:43.120Z,21.43
2022-09-01T05:13:48.346Z,19.97
2022-09-01T05:16:58.525Z,18.73
2022-09-01T05:20:02.069Z,17.50
2022-09-01T05:23:05.282Z,15.87
2022-09-01T05:26:17.007Z,15.53
2022-09-01T05:29:22.663Z,16.63
2022-09-01T05:32:27.626Z,15.70
2022-09-01T05:35:32.431Z,15.30
2022-09-01T05:38:36.377Z,15.27
2022-09-01T05:41:41.026Z,14.90
2022-09-01T05:44:44.472Z,17.40
2022-09-01T05:47:50.063Z,17.90
2022-09-01T05:50:58.131Z,16.53
2022-09-01T05:54:02.043Z,17.80
2022-09-01T05:57:30.359Z,16.43
2022-09-01T06:00:34.837Z,17.70
2022-09-01T06:03:41.495Z,19.80
2022-09-01T06:07:05.851Z,20.20
2022-09-01T06:10:11.684Z,19.50
2022-09-01T06:13:16.011Z,18.70
2022-09-01T06:16:19.773Z,18.00
2022-09-01T06:19:24.303Z,17.43
2022-09-01T06:22:29.426Z,17.93
2022-09-01T06:25:32.762Z,17.23
2022-09-01T06:28:41.458Z,19.27
2022-09-01T06:31:51.978Z,19.27
2022-09-01T06:34:58.232Z,18.27
2022-09-01T06:38:02.108Z,17.60
2022-09-01T06:41:13.039Z,18.27
2022-09-01T06:44:16.218Z,18.47
2022-09-01T06:47:19.532Z,18.57
2022-09-01T06:53:51.236Z,21.73
2022-09-01T06:56:54.410Z,19.10
2022-09-01T07:00:00.372Z,20.93
2022-09-01T07:03:09.365Z,22.93
2022-09-01T07:06:59.279Z,24.33
2022-09-01T07:09:47.648Z,25.73
2022-09-01T07:13:11.584Z,26.33
2022-09-01T07:16:33.305Z,24.67
2022-09-01T07:19:53.059Z,24.13
2022-09-01T07:23:07.146Z,19.90
2022-09-01T07:26:12.173Z,21.67
2022-09-01T07:29:15.312Z,23.37
2022-09-01T07:36:25.587Z,22.37
2022-09-01T07:46:00.481Z,21.20
2022-09-01T07:52:27.998Z,21.27
2022-09-01T07:55:33.183Z,20.37
2022-09-01T07:58:37.420Z,20.23
2022-09-01T08:01:40.544Z,21.63
2022-09-01T08:04:46.479Z,23.60
2022-09-01T08:07:53.197Z,21.60
2022-09-01T08:11:05.302Z,21.33
2022-09-01T08:14:08.703Z,19.63
2022-09-01T08:17:18.023Z,19.40
2022-09-01T08:20:21.424Z,19.97
2022-09-01T08:23:27.000Z,17.07
2022-09-01T08:26:31.499Z,15.70
2022-09-01T08:29:34.682Z,15.13
2022-09-01T08:32:38.263Z,15.43
2022-09-01T08:35:43.355Z,16.20
2022-09-01T08:38:46.566Z,14.30
2022-09-01T08:42:05.415Z,16.63
2022-09-01T08:45:17.401Z,14.10
2022-09-01T08:51:53.763Z,14.63
2022-09-01T08:55:03.574Z,15.37
2022-09-01T08:58:10.055Z,15.80
2022-09-01T09:01:21.896Z,14.57
2022-09-01T09:04:41.256Z,14.10
2022-09-01T09:08:07.881Z,14.10
2022-09-01T09:11:24.299Z,15.53
2022-09-01T09:14:46.880Z,14.73
2022-09-01T09:18:00.257Z,15.40
2022-09-01T09:21:13.194Z,14.10
2022-09-01T09:24:25.065Z,15.90
2022-09-01T09:27:34.414Z,13.63
2022-09-01T09:30:39.212Z,14.63
2022-09-01T09:33:51.870Z,13.77
2022-09-01T09:36:57.364Z,14.43
2022-09-01T09:40:11.126Z,14.33
2022-09-01T09:43:17.219Z,14.20
2022-09-01T09:46:28.702Z,13.77
2022-09-01T09:49:36.593Z,13.23
2022-09-01T09:52:46.176Z,14.10
2022-09-01T09:55:56.832Z,13.30
2022-09-01T09:59:00.031Z,13.77
2022-09-01T10:02:19.046Z,13.60
2022-09-01T10:05:33.410Z,13.23
2022-09-01T10:08:45.327Z,13.97
2022-09-01T10:11:53.034Z,13.83
2022-09-01T10:15:04.705Z,14.50
2022-09-01T10:18:28.790Z,12.93
2022-09-01T10:21:35.600Z,13.80
2022-09-01T10:24:44.745Z,13.53
2022-09-01T10:27:54.235Z,14.00
2022-09-01T10:30:59.186Z,13.90
2022-09-01T10:34:06.843Z,14.33
2022-09-01T10:37:11.564Z,14.27
2022-09-01T10:40:20.986Z,13.70
2022-09-01T10:43:41.078Z,13.23
2022-09-01T10:46:50.886Z,14.03
2022-09-01T10:50:10.458Z,13.60
2022-09-01T10:53:39.386Z,14.03
2022-09-01T10:56:51.324Z,14.03
2022-09-01T10:59:56.659Z,13.70
2022-09-01T11:03:40.907Z,13.70
2022-09-01T11:07:24.283Z,13.37
2022-09-01T11:10:53.032Z,13.70
2022-09-01T11:13:58.923Z,13.70
2022-09-01T11:17:25.358Z,14.37
2022-09-01T11:20:31.046Z,13.77
2022-09-01T11:23:35.739Z,13.23
2022-09-01T11:26:50.014Z,14.23
2022-09-01T11:29:55.872Z,16.10
2022-09-01T11:33:13.945Z,13.17
2022-09-01T11:36:28.724Z,13.60
2022-09-01T11:39:50.013Z,14.53
2022-09-01T11:42:55.415Z,14.10
2022-09-01T11:46:11.741Z,14.70
2022-09-01T11:49:31.361Z,14.67
2022-09-01T11:52:37.675Z,14.00
2022-09-01T11:55:44.148Z,14.37
2022-09-01T11:58:48.471Z,15.73
2022-09-01T12:01:58.520Z,14.43
2022-09-01T12:05:03.249Z,13.97
2022-09-01T12:08:15.209Z,13.90
2022-09-01T12:11:27.098Z,14.53
2022-09-01T12:14:48.860Z,14.50
2022-09-01T12:17:54.657Z,14.23
2022-09-01T12:20:59.833Z,14.97
2022-09-01T12:24:16.251Z,14.83
2022-09-01T12:27:23.250Z,14.50
2022-09-01T12:30:27.339Z,15.97
2022-09-01T12:33:31.300Z,14.17
2022-09-01T12:36:37.423Z,13.93
2022-09-01T12:39:42.723Z,14.37
2022-09-01T12:42:54.231Z,13.93
2022-09-01T12:46:00.129Z,15.97
2022-09-01T12:49:18.889Z,14.90
2022-09-01T12:52:26.630Z,14.47
2022-09-01T12:59:11.930Z,14.73
2022-09-01T13:02:28.824Z,14.97
2022-09-01T13:05:40.948Z,15.33
2022-09-01T13:08:46.236Z,14.90
2022-09-01T13:12:06.712Z,15.30
2022-09-01T13:18:22.793Z,16.40
2022-09-01T13:21:27.612Z,14.80
2022-09-01T13:24:31.907Z,18.90
2022-09-01T13:27:35.218Z,16.50
2022-09-01T13:30:41.033Z,15.80
2022-09-01T13:37:07.225Z,16.87
2022-09-01T13:40:15.687Z,20.37
2022-09-01T13:43:22.152Z,19.70
2022-09-01T13:46:26.802Z,18.27
2022-09-01T13:50:06.475Z,16.73
2022-09-01T13:52:58.329Z,18.07
2022-09-01T13:56:01.947Z,18.07
2022-09-01T13:59:05.096Z,17.73
2022-09-01T14:02:10.439Z,18.17
2022-09-01T14:05:13.555Z,18.20
2022-09-01T14:08:19.205Z,18.23
2022-09-01T14:11:22.336Z,19.63
2022-09-01T14:14:25.627Z,18.57
2022-09-01T14:17:30.165Z,18.07
2022-09-01T14:20:37.677Z,17.70
2022-09-01T14:23:40.819Z,17.30
2022-09-01T14:26:44.132Z,16.37
2022-09-01T14:29:51.247Z,17.10
2022-09-01T14:32:59.847Z,17.07
2022-09-01T14:36:03.366Z,17.40
2022-09-01T14:39:06.682Z,17.60
2022-09-01T14:42:11.982Z,17.17
2022-09-01T14:45:16.550Z,18.47
2022-09-01T14:48:21.641Z,17.23
2022-09-01T14:52:10.209Z,18.30
2022-09-01T14:54:51.294Z,17.33
2022-09-01T14:57:55.157Z,16.47
2022-09-01T15:01:11.899Z,17.67
2022-09-01T15:04:23.979Z,15.63
2022-09-01T15:07:27.138Z,15.90
2022-09-01T15:10:30.454Z,16.57
2022-09-01T15:13:33.534Z,16.60
2022-09-01T15:16:39.771Z,16.80
2022-09-01T15:19:44.370Z,15.43
2022-09-01T15:22:47.586Z,17.03
2022-09-01T15:25:53.282Z,15.57
2022-09-01T15:28:57.024Z,16.10
2022-09-01T15:32:00.196Z,15.77
2022-09-01T15:35:05.876Z,15.60
2022-09-01T15:38:09.062Z,15.93
2022-09-01T15:41:17.650Z,15.80
2022-09-01T15:44:20.825Z,18.03
2022-09-01T15:47:23.882Z,17.70
2022-09-01T15:50:28.596Z,17.97
2022-09-01T15:53:31.672Z,17.60
2022-09-01T15:56:34.976Z,17.80
2022-09-01T15:59:40.166Z,17.17
2022-09-01T16:02:43.602Z,19.00
2022-09-01T16:05:48.104Z,19.83
2022-09-01T16:08:54.534Z,19.27
2022-09-01T16:11:57.696Z,19.73
2022-09-01T16:15:03.364Z,19.90
2022-09-01T16:18:25.476Z,21.70
2022-09-01T16:21:41.362Z,23.00
2022-09-01T16:24:46.733Z,24.60
2022-09-01T16:27:50.703Z,23.13
2022-09-01T16:30:58.365Z,23.60
2022-09-01T16:34:03.840Z,23.30
2022-09-01T16:37:15.407Z,22.80
2022-09-01T16:40:31.107Z,22.93
2022-09-01T16:43:41.782Z,22.30
2022-09-01T16:46:51.760Z,21.97
2022-09-01T16:50:05.275Z,22.40
2022-09-01T16:53:18.173Z,22.47
2022-09-01T16:56:26.952Z,21.57
2022-09-01T16:59:39.553Z,19.00
2022-09-01T17:02:55.127Z,16.43
2022-09-01T17:06:13.768Z,18.53
2022-09-01T17:09:25.059Z,17.17
2022-09-01T17:12:34.567Z,17.73
2022-09-01T17:15:41.190Z,18.43
2022-09-01T17:18:48.697Z,19.67
2022-09-01T17:22:00.421Z,17.87
2022-09-01T17:25:10.243Z,16.80
2022-09-01T17:28:17.214Z,16.20
2022-09-01T17:31:34.536Z,16.53
2022-09-01T17:34:50.004Z,17.70
2022-09-01T17:38:05.899Z,16.57
2022-09-01T17:41:23.655Z,15.37
2022-09-01T17:44:35.753Z,15.13
2022-09-01T17:47:47.743Z,15.50
2022-09-01T17:51:03.730Z,16.37
2022-09-01T17:54:18.846Z,15.33
2022-09-01T17:57:33.451Z,16.00
2022-09-01T18:00:42.177Z,15.47
2022-09-01T18:04:02.159Z,14.90
2022-09-01T18:07:18.468Z,14.73
2022-09-01T18:10:27.703Z,14.60
2022-09-01T18:13:52.990Z,14.83
2022-09-01T18:17:02.018Z,14.00
2022-09-01T18:20:10.171Z,14.87
2022-09-01T18:23:15.143Z,13.10
2022-09-01T18:26:27.322Z,13.73
2022-09-01T18:29:31.883Z,12.50
2022-09-01T18:32:43.167Z,14.70
2022-09-01T18:35:53.753Z,14.17
2022-09-01T18:39:01.439Z,14.87
2022-09-01T18:42:15.416Z,13.67
2022-09-01T18:45:33.325Z,13.13
2022-09-01T18:48:51.208Z,14.67
2022-09-01T18:52:05.213Z,13.10
2022-09-01T18:55:19.379Z,13.63
2022-09-01T18:58:40.914Z,12.47
2022-09-01T19:01:55.143Z,12.93
2022-09-01T19:05:00.611Z,12.67
2022-09-01T19:08:14.915Z,13.17
2022-09-01T19:11:31.766Z,14.60
2022-09-01T19:14:43.612Z,14.10
2022-09-01T19:18:13.135Z,14.80
2022-09-01T19:21:22.510Z,14.40
2022-09-01T19:24:31.434Z,14.17
2022-09-01T19:27:37.255Z,13.97
2022-09-01T19:30:44.003Z,14.00
2022-09-01T19:33:51.734Z,13.20
2022-09-01T19:36:57.074Z,14.97
2022-09-01T19:40:01.089Z,15.40
2022-09-01T19:43:07.491Z,14.70
2022-09-01T19:46:22.415Z,15.00
2022-09-01T19:49:39.417Z,14.97
2022-09-01T19:52:52.243Z,15.23
2022-09-01T19:56:03.576Z,15.30
2022-09-01T19:59:17.237Z,18.80
2022-09-01T20:02:28.278Z,16.97
2022-09-01T20:05:37.041Z,15.90
2022-09-01T20:08:46.544Z,16.97
2022-09-01T20:11:54.782Z,18.80
2022-09-01T20:15:09.309Z,18.20
2022-09-01T20:18:24.790Z,16.77
2022-09-01T20:21:29.719Z,16.03
2022-09-01T20:24:37.350Z,15.97
2022-09-01T20:27:51.317Z,15.90
2022-09-01T20:31:03.226Z,15.53
2022-09-01T20:34:11.410Z,15.43
2022-09-01T20:37:22.360Z,15.20
2022-09-01T20:40:27.655Z,15.40
2022-09-01T20:43:36.758Z,15.13
2022-09-01T20:46:39.971Z,15.03
2022-09-01T20:49:43.213Z,15.63
2022-09-01T20:53:01.948Z,15.60
2022-09-01T20:56:10.443Z,17.80
2022-09-01T20:59:19.050Z,17.17
2022-09-01T21:02:34.808Z,15.83
2022-09-01T21:05:49.810Z,15.07
2022-09-01T21:09:02.841Z,14.40
2022-09-01T21:12:09.859Z,14.50
2022-09-01T21:15:24.782Z,15.20
2022-09-01T21:18:41.195Z,15.43
2022-09-01T21:21:57.855Z,16.87
2022-09-01T21:25:02.456Z,15.13
2022-09-01T21:28:07.248Z,16.00
2022-09-01T21:31:10.568Z,14.70
2022-09-01T21:34:16.828Z,15.13
2022-09-01T21:37:22.447Z,14.20
2022-09-01T21:40:27.255Z,13.50
2022-09-01T21:43:32.956Z,14.40
2022-09-01T21:46:36.215Z,13.13
2022-09-01T21:49:39.308Z,14.00
2022-09-01T21:52:42.571Z,13.63
2022-09-01T21:55:47.205Z,13.10
2022-09-01T21:58:50.287Z,12.93
2022-09-01T22:01:53.783Z,13.80
2022-09-01T22:04:57.393Z,13.43
2022-09-01T22:08:01.655Z,15.20
2022-09-01T22:11:09.879Z,13.67
2022-09-01T22:14:13.178Z,13.50
2022-09-01T22:17:16.289Z,13.43
2022-09-01T22:20:22.657Z,13.53
2022-09-01T22:23:25.760Z,13.30
2022-09-01T22:26:33.986Z,12.83
2022-09-01T22:29:37.106Z,14.23
2022-09-01T22:32:45.443Z,13.10
2022-09-01T22:35:50.756Z,14.70
2022-09-01T22:38:55.819Z,14.53
2022-09-01T22:42:00.346Z,14.83
2022-09-01T22:45:03.758Z,14.70
2022-09-01T22:48:06.889Z,14.57
2022-09-01T22:51:11.402Z,13.70
2022-09-01T22:54:14.505Z,15.47
2022-09-01T22:57:20.304Z,14.50
2022-09-01T23:00:24.323Z,13.13
2022-09-01T23:03:27.446Z,13.70
2022-09-01T23:06:31.952Z,13.73
2022-09-01T23:09:36.400Z,14.00
2022-09-01T23:12:41.048Z,12.80
2022-09-01T23:15:44.176Z,13.10
2022-09-01T23:18:48.781Z,12.47
2022-09-01T23:21:52.954Z,13.20
2022-09-01T23:24:56.195Z,13.00
2022-09-01T23:28:00.654Z,13.70
2022-09-01T23:31:03.838Z,12.10
2022-09-01T23:34:09.392Z,13.13
2022-09-01T23:37:12.494Z,12.37
2022-09-01T23:40:15.671Z,12.80
2022-09-01T23:43:22.224Z,12.90
2022-09-01T23:46:28.357Z,12.40
2022-09-01T23:49:31.423Z,11.80
2022-09-01T23:52:34.668Z,12.83
2022-09-01T23:55:43.537Z,13.70
2022-09-01T23:58:48.886Z,12.73
